Home > Products > Valid Products > TAF

000
FTUS44 KLZK 271800 AAA
TAFLIT
TAF AMD
KLIT 271809Z 2718/2818 33012KT P6SM VCSH SCT030 BKN080
     FM272100 35012KT P6SM SCT060 BKN250
     FM280000 02004KT P6SM SCT100 BKN250
     FM280800 14004KT P6SM SCT050 BKN100
     FM281400 12012KT P6SM SCT025 BKN050 PROB30 2814/2818 5SM -SHRA
      BKN025=



000
FTUS44 KLZK 271800 AAA
TAFLIT
TAF AMD
KLIT 271809Z 2718/2818 33012KT P6SM VCSH SCT030 BKN080
     FM272100 35012KT P6SM SCT060 BKN250
     FM280000 02004KT P6SM SCT100 BKN250
     FM280800 14004KT P6SM SCT050 BKN100
     FM281400 12012KT P6SM SCT025 BKN050 PROB30 2814/2818 5SM -SHRA
      BKN025=



000
FTUS44 KLZK 271700
TAFHOT
TAF
KHOT 271720Z 2718/2818 03009KT P6SM SCT030 BKN080
     FM272100 35012KT P6SM SCT060 BKN250
     FM280000 02004KT P6SM SCT100 BKN250
     FM280800 14004KT P6SM SCT050 BKN100
     FM281400 12012KT P6SM SCT025 BKN050
      TEMPO 2814/2818 5SM -SHRA BKN025=



000
FTUS44 KLZK 271700
TAFHRO
TAF
KHRO 271720Z 2718/2818 33012G20KT P6SM BKN020 BKN040
     FM272000 33008KT P6SM SCT025 BKN040
     FM280000 VRB04KT P6SM SCT100 BKN250
     FM280800 14004KT P6SM SCT050 BKN100
     FM281400 14012KT P6SM SCT025 BKN050 PROB30 2814/2818 5SM -SHRA
      BKN025=



000
FTUS44 KLZK 271700
TAFLIT
TAF
KLIT 271720Z 2718/2818 03008KT P6SM SCT030 BKN080
     FM272100 35012KT P6SM SCT060 BKN250
     FM280000 02004KT P6SM SCT100 BKN250
     FM280800 14004KT P6SM SCT050 BKN100
     FM281400 12012KT P6SM SCT025 BKN050 PROB30 2814/2818 5SM -SHRA
      BKN025=



000
FTUS44 KLZK 271700
TAFPBF
TAF
KPBF 271720Z 2718/2818 11005KT P6SM SCT030 BKN080
     FM272100 35012KT P6SM SCT060 BKN250
     FM280000 02004KT P6SM SCT100 BKN250
     FM280800 14004KT P6SM SCT050 BKN100
     FM281400 12012KT P6SM SCT025 BKN050 PROB30 2814/2818 5SM -SHRA
      BKN025=



000
FTUS44 KLZK 271100 AAA
TAFHRO
TAF AMD
KHRO 271145Z 2712/2812 36007KT P6SM SCT007 OVC020
      TEMPO 2712/2716 -RA BKN007
     FM271600 33009KT P6SM SCT030 BKN060
     FM272000 33008KT P6SM SCT040 BKN250
     FM280000 VRB04KT P6SM SCT100 BKN250
     FM280600 14004KT P6SM SCT050 BKN100=



000
FTUS44 KLZK 271100 AAA
TAFHRO
TAF AMD
KHRO 271145Z 2712/2812 36007KT P6SM SCT007 OVC020
      TEMPO 2712/2716 -RA BKN007
     FM271600 33009KT P6SM SCT030 BKN060
     FM272000 33008KT P6SM SCT040 BKN250
     FM280000 VRB04KT P6SM SCT100 BKN250
     FM280600 14004KT P6SM SCT050 BKN100=



000
FTUS44 KLZK 271100
TAFHOT
TAF
KHOT 271137Z 2712/2812 00000KT P6SM SCT060 BKN100
     FM271500 36007KT P6SM SCT035 BKN060
     FM272000 01007KT P6SM SCT060 BKN250
     FM280000 VRB03KT P6SM SCT100 BKN250=



000
FTUS44 KLZK 271100
TAFPBF
TAF
KPBF 271137Z 2712/2812 VRB04KT P6SM SCT060 BKN100
     FM271500 36009G16KT P6SM SCT035 BKN060
     FM272000 35010G18KT P6SM SCT060 BKN250
     FM280000 VRB04KT P6SM SCT100 BKN250=



000
FTUS44 KLZK 271100
TAFHRO
TAF
KHRO 271137Z 2712/2812 36007KT P6SM SCT012 OVC025
      TEMPO 2712/2716 -RA BKN012
     FM271600 33009KT P6SM SCT030 BKN060
     FM272000 33008KT P6SM SCT040 BKN250
     FM280000 VRB04KT P6SM SCT100 BKN250
     FM280600 14004KT P6SM SCT050 BKN100=



000
FTUS44 KLZK 271100
TAFLIT
TAF
KLIT 271137Z 2712/2812 36005KT P6SM SCT060 BKN100
     FM271500 36009G16KT P6SM SCT035 BKN060
     FM272000 35010G18KT P6SM SCT060 BKN250
     FM280000 02004KT P6SM SCT100 BKN250
     FM280600 08004KT P6SM SCT050 BKN100=



000
FTUS44 KLZK 271100
TAFHOT
TAF
KHOT 271137Z 2712/2812 00000KT P6SM SCT060 BKN100
     FM271500 36007KT P6SM SCT035 BKN060
     FM272000 01007KT P6SM SCT060 BKN250
     FM280000 VRB03KT P6SM SCT100 BKN250=



000
FTUS44 KLZK 271100
TAFHRO
TAF
KHRO 271137Z 2712/2812 36007KT P6SM SCT012 OVC025
      TEMPO 2712/2716 -RA BKN012
     FM271600 33009KT P6SM SCT030 BKN060
     FM272000 33008KT P6SM SCT040 BKN250
     FM280000 VRB04KT P6SM SCT100 BKN250
     FM280600 14004KT P6SM SCT050 BKN100=



000
FTUS44 KLZK 271100
TAFLIT
TAF
KLIT 271137Z 2712/2812 36005KT P6SM SCT060 BKN100
     FM271500 36009G16KT P6SM SCT035 BKN060
     FM272000 35010G18KT P6SM SCT060 BKN250
     FM280000 02004KT P6SM SCT100 BKN250
     FM280600 08004KT P6SM SCT050 BKN100=



000
FTUS44 KLZK 271100
TAFPBF
TAF
KPBF 271137Z 2712/2812 VRB04KT P6SM SCT060 BKN100
     FM271500 36009G16KT P6SM SCT035 BKN060
     FM272000 35010G18KT P6SM SCT060 BKN250
     FM280000 VRB04KT P6SM SCT100 BKN250=



000
FTUS44 KLZK 271000 AAA
TAFLIT
TAF AMD
KLIT 271022Z 2710/2806 33004KT P6SM SCT060 BKN100
     FM271500 36008KT P6SM SCT035 BKN060
     FM272000 36010G18KT P6SM SCT045 SCT250
     FM280000 04004KT P6SM SCT100 BKN250=



000
FTUS44 KLZK 271000 AAA
TAFLIT
TAF AMD
KLIT 271022Z 2710/2806 33004KT P6SM SCT060 BKN100
     FM271500 36008KT P6SM SCT035 BKN060
     FM272000 36010G18KT P6SM SCT045 SCT250
     FM280000 04004KT P6SM SCT100 BKN250=



000
FTUS44 KLZK 271000 AAC
TAFPBF
TAF AMD
KPBF 271022Z 2710/2806 30004KT P6SM SCT060 BKN100
     FM271500 35006KT P6SM SCT035 BKN060
     FM272000 35010G18KT P6SM SCT045 SCT250
     FM280000 04004KT P6SM SCT100 BKN250=



000
FTUS44 KLZK 270900 AAB
TAFPBF
TAF AMD
KPBF 270940Z 2710/2806 VRB03KT P6SM SCT060 SCT100
      TEMPO 2710/2713 4SM BR
     FM271500 35006KT P6SM SCT035 BKN060
     FM272000 35010G18KT P6SM SCT045 SCT250
     FM280000 04004KT P6SM SCT100 BKN250=



000
FTUS44 KLZK 270700 AAA
TAFPBF
TAF AMD
KPBF 270745Z 2708/2806 VRB03KT 3SM BR SCT060 SCT100
      TEMPO 2708/2712 1/2SM FG VV002
     FM271500 35006KT P6SM SCT035 BKN060
     FM272000 35010G18KT P6SM SCT045 SCT250
     FM280000 04004KT P6SM SCT100 BKN250=



000
FTUS44 KLZK 270700 AAA
TAFPBF
TAF AMD
KPBF 270745Z 2708/2806 VRB03KT 3SM BR SCT060 SCT100
      TEMPO 2708/2712 1/2SM FG VV002
     FM271500 35006KT P6SM SCT035 BKN060
     FM272000 35010G18KT P6SM SCT045 SCT250
     FM280000 04004KT P6SM SCT100 BKN250=



000
FTUS44 KLZK 270500 RRA
TAFHRO
TAF
KHRO 270545Z 2706/2806 VRB04KT P6SM SCT050 BKN100
     FM271100 34004KT P6SM SCT025 BKN050
     FM271500 32008KT P6SM OVC025
     FM272000 32008KT P6SM SCT035 BKN250
     FM280000 VRB03KT P6SM SCT100 BKN250=



000
FTUS44 KLZK 270500 RRA
TAFPBF
TAF
KPBF 270545Z 2706/2806 VRB03KT P6SM SCT060 SCT100
     FM271500 35006KT P6SM SCT035 BKN060
     FM272000 35010G18KT P6SM SCT045 SCT250
     FM280000 04004KT P6SM SCT100 BKN250=



000
FTUS44 KLZK 270500 RRA
TAFHOT
TAF
KHOT 270545Z 2706/2806 00000KT P6SM SCT060 SCT100
     FM271500 36006KT P6SM SCT035 BKN060
     FM272000 01008KT P6SM SCT045 SCT250
     FM280000 07003KT P6SM SCT100 BKN250=



000
FTUS44 KLZK 270500 RRA
TAFLIT
TAF
KLIT 270545Z 2706/2806 VRB03KT P6SM SCT060 SCT100
     FM271500 36008KT P6SM SCT035 BKN060
     FM272000 36010G18KT P6SM SCT045 SCT250
     FM280000 04004KT P6SM SCT100 BKN250=



000
FTUS44 KLZK 270500 RRA
TAFPBF
TAF
KPBF 270545Z 2706/2806 VRB03KT P6SM SCT060 SCT100
     FM271500 35006KT P6SM SCT035 BKN060
     FM272000 35010G18KT P6SM SCT045 SCT250
     FM280000 04004KT P6SM SCT100 BKN250=



000
FTUS44 KLZK 270500 RRA
TAFHRO
TAF
KHRO 270545Z 2706/2806 VRB04KT P6SM SCT050 BKN100
     FM271100 34004KT P6SM SCT025 BKN050
     FM271500 32008KT P6SM OVC025
     FM272000 32008KT P6SM SCT035 BKN250
     FM280000 VRB03KT P6SM SCT100 BKN250=



000
FTUS44 KLZK 270500 RRA
TAFLIT
TAF
KLIT 270545Z 2706/2806 VRB03KT P6SM SCT060 SCT100
     FM271500 36008KT P6SM SCT035 BKN060
     FM272000 36010G18KT P6SM SCT045 SCT250
     FM280000 04004KT P6SM SCT100 BKN250=



000
FTUS44 KLZK 270500 RRA
TAFHOT
TAF
KHOT 270545Z 2706/2806 00000KT P6SM SCT060 SCT100
     FM271500 36006KT P6SM SCT035 BKN060
     FM272000 01008KT P6SM SCT045 SCT250
     FM280000 07003KT P6SM SCT100 BKN250=



000
FTUS44 KLZK 262300
TAFHRO
TAF
KHRO 262327Z 2700/2724 35009KT P6SM SKC
     FM270600 34005KT P6SM BKN060
     FM271100 34004KT P6SM SCT025 BKN050 PROB30 2711/2715 3SM -RASN
      BR BKN020
     FM271500 32008KT P6SM OVC020
     FM271900 32008KT P6SM SCT025 BKN040=



000
FTUS44 KLZK 262300
TAFPBF
TAF
KPBF 262327Z 2700/2724 35010KT P6SM SCT025 BKN035
     FM270100 34003KT P6SM SCT050
     FM270900 VRB03KT P6SM OVC035
     FM271600 30006KT P6SM BKN035=



000
FTUS44 KLZK 262300
TAFLIT
TAF
KLIT 262327Z 2700/2724 35006KT P6SM SCT100
     FM270800 VRB03KT P6SM OVC060
     FM271600 30006KT P6SM BKN040=



000
FTUS44 KLZK 262300
TAFHOT
TAF
KHOT 262327Z 2700/2724 35006KT P6SM SCT100
     FM270800 VRB03KT P6SM OVC060
     FM271600 30006KT P6SM BKN040=



000
FTUS44 KLZK 261700 RRA
TAFHRO
TAF
KHRO 261743Z 2618/2718 35009G17KT P6SM SCT020 OVC100
      TEMPO 2618/2620 BKN020
     FM262000 34008G15KT P6SM SCT040 SCT100
     FM270000 VRB03KT P6SM SKC
     FM270600 VRB03KT P6SM SCT050 OVC100
     FM271000 34002KT P6SM BKN050 PROB30 2710/2714 3SM -SNRA BR
      BKN020
     FM271400 01008KT P6SM VCSH BKN020 OVC050=



000
FTUS44 KLZK 261700 RRA
TAFHOT
TAF
KHOT 261743Z 2618/2718 01009G20KT P6SM VCSH SCT020 BKN040
      TEMPO 2618/2621 BKN020
     FM262100 35008G16KT P6SM FEW040 BKN100
     FM270000 36003KT P6SM SCT100
     FM270900 03002KT P6SM OVC080
      TEMPO 2709/2713 3SM BR
     FM271300 34005KT P6SM FEW100=



000
FTUS44 KLZK 261700 RRA
TAFLIT
TAF
KLIT 261743Z 2618/2718 35015G22KT P6SM VCSH SCT020 OVC050
      TEMPO 2618/2621 BKN020
     FM262100 35008G16KT P6SM SCT050 BKN100
     FM270000 36003KT P6SM SCT100
     FM270900 03002KT P6SM OVC080
      TEMPO 2709/2713 4SM BR
     FM271300 34005KT P6SM FEW100=



000
FTUS44 KLZK 261700 RRA
TAFPBF
TAF
KPBF 261743Z 2618/2718 36018G27KT P6SM VCSH BKN020 BKN040
      TEMPO 2618/2622 3SM -RA BR BKN009
     FM262200 36014G24KT P6SM SCT020 BKN040
     FM270000 36003KT P6SM BKN050
     FM270900 03002KT P6SM SCT050 OVC080
      TEMPO 2709/2713 4SM BR
     FM271300 34005KT P6SM FEW100=



000
FTUS44 KLZK 261600 AAB
TAFHOT
TAF AMD
KHOT 261630Z 2617/2712 35010G20KT P6SM VCSH BKN020 BKN040
     FM261900 02010G18KT P6SM SCT030 BKN060
     FM262100 02008KT P6SM FEW040
     FM270000 VRB03KT P6SM SCT100 SCT250=



000
FTUS44 KLZK 261600 AAB
TAFHRO
TAF AMD
KHRO 261628Z 2616/2712 35009G17KT P6SM BKN020 OVC040
      TEMPO 2616/2618 BKN009
     FM261900 34008G15KT P6SM SCT040
     FM270000 VRB03KT P6SM SKC
     FM270600 VRB03KT P6SM SCT050 OVC100=



000
FTUS44 KLZK 261500 AAA
TAFPBF
TAF AMD
KPBF 261551Z 2616/2712 36015G25KT P6SM VCSH SCT030 BKN050
      TEMPO 2616/2619 2SM RA BR BKN015
     FM262100 36014G24KT P6SM FEW040
     FM270000 36004KT P6SM SCT100 SCT250=



000
FTUS44 KLZK 261500 AAA
TAFPBF
TAF AMD
KPBF 261551Z 2616/2712 36015G25KT P6SM VCSH SCT030 BKN050
      TEMPO 2616/2619 2SM RA BR BKN015
     FM262100 36014G24KT P6SM FEW040
     FM270000 36004KT P6SM SCT100 SCT250=



000
FTUS44 KLZK 261400 AAA
TAFHOT
TAF AMD
KHOT 261438Z 2615/2712 34009KT P6SM VCSH BKN025 BKN060
      TEMPO 2615/2617 2SM -RA BR BKN005
     FM261700 02010G18KT P6SM SCT030 BKN060
     FM262000 02008KT P6SM FEW040
     FM270000 VRB03KT P6SM SCT100 SCT250=



000
FTUS44 KLZK 261400 AAA
TAFLIT
TAF AMD
KLIT 261434Z 2615/2712 34010G18KT P6SM BKN020 BKN060
      TEMPO 2615/2617 4SM -SHRA BR BKN009
     FM261700 36014G24KT P6SM SCT030 BKN060
     FM262000 36012G20KT P6SM FEW040
     FM270000 36004KT P6SM SCT100 SCT250=



000
FTUS44 KLZK 261200 AAA
TAFHRO
TAF AMD
KHRO 261206Z 2612/2712 34010G18KT P6SM -RA SCT005 OVC012
      TEMPO 2612/2616 5SM BR BKN005
     FM261600 34009G16KT P6SM SCT025 SCT250
      TEMPO 2616/2618 BKN020
     FM261900 34008KT P6SM FEW040
     FM270000 VRB03KT P6SM SKC
     FM270600 VRB03KT P6SM SCT050 OVC100=



000
FTUS44 KLZK 261200 AAA
TAFHRO
TAF AMD
KHRO 261206Z 2612/2712 34010G18KT P6SM -RA SCT005 OVC012
      TEMPO 2612/2616 5SM BR BKN005
     FM261600 34009G16KT P6SM SCT025 SCT250
      TEMPO 2616/2618 BKN020
     FM261900 34008KT P6SM FEW040
     FM270000 VRB03KT P6SM SKC
     FM270600 VRB03KT P6SM SCT050 OVC100=



000
FTUS44 KLZK 261100
TAFPBF
TAF
KPBF 261120Z 2612/2712 36010G18KT P6SM -SHRA VCTS SCT020CB BKN060
      TEMPO 2612/2616 5SM SHRA BR BKN020
     FM261600 36015G25KT P6SM VCSH SCT030 BKN060
      TEMPO 2616/2619 BKN025
     FM262100 36014G24KT P6SM FEW040
     FM270000 36004KT P6SM SCT100 SCT250=



000
FTUS44 KLZK 261100
TAFHOT
TAF
KHOT 261120Z 2612/2712 01009G16KT P6SM VCSH SCT020 BKN060
      TEMPO 2612/2616 BKN020
     FM261600 02010G18KT P6SM SCT030 BKN060
     FM262000 02008KT P6SM FEW040
     FM270000 VRB03KT P6SM SCT100 SCT250=



000
FTUS44 KLZK 261100
TAFLIT
TAF
KLIT 261120Z 2612/2712 36010G18KT P6SM -SHRA SCT020 BKN060
      TEMPO 2612/2616 BKN020
     FM261600 36014G24KT P6SM SCT030 BKN060
     FM262000 36012G20KT P6SM FEW040
     FM270000 36004KT P6SM SCT100 SCT250=



000
FTUS44 KLZK 261100
TAFHRO
TAF
KHRO 261120Z 2612/2712 34010G18KT P6SM VCSH SCT007 OVC012
     FM261600 34009G16KT P6SM SCT025 SCT250
      TEMPO 2616/2618 BKN020
     FM261900 34008KT P6SM FEW040
     FM270000 VRB03KT P6SM SKC
     FM270600 VRB03KT P6SM SCT050 OVC100=



000
FTUS44 KLZK 261000 AAB
TAFPBF
TAF AMD
KPBF 261025Z 2610/2706 31009G16KT 6SM SHRA VCTS SCT020 BKN050CB
      TEMPO 2610/2613 3SM -TSRA BR BKN020CB
     FM261300 32012G20KT P6SM -SHRA OVC025
     FM261500 35014G24KT P6SM SCT035 BKN050
     FM261700 35014G24KT P6SM SCT250
     FM270100 35006KT P6SM SKC=



000
FTUS44 KLZK 261000 AAB
TAFPBF
TAF AMD
KPBF 261025Z 2610/2706 31009G16KT 6SM SHRA VCTS SCT020 BKN050CB
      TEMPO 2610/2613 3SM -TSRA BR BKN020CB
     FM261300 32012G20KT P6SM -SHRA OVC025
     FM261500 35014G24KT P6SM SCT035 BKN050
     FM261700 35014G24KT P6SM SCT250
     FM270100 35006KT P6SM SKC=



000
FTUS44 KLZK 261000 AAB
TAFLIT
TAF AMD
KLIT 261024Z 2610/2706 30010G18KT 6SM -SHRA BR VCTS SCT020 BKN050CB
      TEMPO 2610/2612 3SM TSRA BR BKN020CB
     FM261200 35012G20KT 6SM -SHRA BR OVC025
     FM261600 35014G24KT P6SM SCT035 BKN060
     FM262100 35010G18KT P6SM SKC=



000
FTUS44 KLZK 260800 AAA
TAFPBF
TAF AMD
KPBF 260832Z 2609/2706 24007KT P6SM SCT050 BKN250
     FM261000 27010G18KT 4SM SHRA VCTS SCT025 BKN050CB
      TEMPO 2610/2613 2SM -TSRA SCT007 OVC015CB
     FM261300 32012G20KT P6SM VCSH BKN025 OVC040
     FM261500 35014G24KT P6SM BKN025 BKN050
     FM261700 35014G24KT P6SM SCT250
     FM270100 35006KT P6SM SKC=



000
FTUS44 KLZK 260800 AAA
TAFLIT
TAF AMD
KLIT 260830Z 2609/2706 35010G18KT 6SM -SHRA BR VCTS SCT020 BKN050CB
      TEMPO 2609/2612 3SM SHRA BKN020
     FM261200 35012G20KT 6SM -SHRA BR OVC025
     FM261600 35014G24KT P6SM SCT035 BKN060
     FM262100 35010G18KT P6SM SKC=



000
FTUS44 KLZK 260800 AAA
TAFHOT
TAF AMD
KHOT 260826Z 2608/2706 35007KT 6SM -SHRA BR VCTS SCT020 BKN050CB
      TEMPO 2608/2612 3SM SHRA BKN020
     FM261200 35009G16KT 6SM -SHRA BR OVC025
     FM261600 35010G18KT P6SM SCT035 BKN060
     FM262100 35008KT P6SM SKC=



000
FTUS44 KLZK 260800 AAA
TAFHRO
TAF AMD
KHRO 260821Z 2608/2706 34009G16KT 6SM -SHRA SCT005 OVC012
      TEMPO 2608/2612 4SM -SHRA BR BKN005
     FM261200 34010G18KT P6SM -SHRA OVC007
     FM261500 34010G18KT P6SM SCT012 BKN020
     FM261900 35009G16KT P6SM SCT040
     FM270000 33005KT P6SM FEW100=



000
FTUS44 KLZK 260500
TAFPBF
TAF
KPBF 260530Z 2606/2706 19013KT P6SM SCT100 BKN250
     FM260800 18010KT 4SM SHRA VCTS SCT025 BKN050CB
      TEMPO 2608/2612 27010G20KT 2SM -TSRA SCT007 OVC015CB
     FM261200 32008KT P6SM VCSH BKN025 OVC040
     FM261500 35010G18KT P6SM BKN025 BKN050
     FM261700 35015G25KT P6SM SCT250
     FM270100 35006KT P6SM SKC=



000
FTUS44 KLZK 260500
TAFLIT
TAF
KLIT 260530Z 2606/2706 18010G19KT P6SM SCT100 BKN250
     FM260700 18010KT 4SM SHRA VCTS SCT025 BKN050CB
      TEMPO 2607/2611 27010G20KT 2SM -TSRA SCT007 OVC015CB
     FM261100 32008KT P6SM VCSH BKN025 OVC040
     FM261400 35010G18KT P6SM BKN025 BKN050
     FM261600 35015G25KT P6SM SCT250
     FM270000 35006KT P6SM SKC=



000
FTUS44 KLZK 260500
TAFHRO
TAF
KHRO 260530Z 2606/2706 01004KT 5SM -SHRA FEW007 BKN040
      TEMPO 2606/2609 3SM -TSRA BKN007 OVC015CB
     FM260900 34012G20KT P6SM -SHRA BKN007 OVC015
     FM261500 34012KT P6SM BKN025
     FM261900 35012KT P6SM SCT040
     FM270000 33005KT P6SM FEW100=



000
FTUS44 KLZK 260500
TAFHOT
TAF
KHOT 260530Z 2606/2706 19010G18KT P6SM SCT100 BKN250
     FM260700 VRB08KT 4SM SHRA VCTS SCT025 BKN050CB
      TEMPO 2607/2611 2SM -TSRA SCT007 OVC015CB
     FM261100 32008KT P6SM VCSH BKN035 BKN050
     FM261400 35010G20KT P6SM SCT050 SCT100
     FM262200 35006KT P6SM SKC=



000
FTUS44 KLZK 260500
TAFPBF
TAF
KPBF 260530Z 2606/2706 19013KT P6SM SCT100 BKN250
     FM260800 18010KT 4SM SHRA VCTS SCT025 BKN050CB
      TEMPO 2608/2612 27010G20KT 2SM -TSRA SCT007 OVC015CB
     FM261200 32008KT P6SM VCSH BKN025 OVC040
     FM261500 35010G18KT P6SM BKN025 BKN050
     FM261700 35015G25KT P6SM SCT250
     FM270100 35006KT P6SM SKC=



000
FTUS44 KLZK 260500
TAFHOT
TAF
KHOT 260530Z 2606/2706 19010G18KT P6SM SCT100 BKN250
     FM260700 VRB08KT 4SM SHRA VCTS SCT025 BKN050CB
      TEMPO 2607/2611 2SM -TSRA SCT007 OVC015CB
     FM261100 32008KT P6SM VCSH BKN035 BKN050
     FM261400 35010G20KT P6SM SCT050 SCT100
     FM262200 35006KT P6SM SKC=



000
FTUS44 KLZK 260500
TAFHRO
TAF
KHRO 260530Z 2606/2706 01004KT 5SM -SHRA FEW007 BKN040
      TEMPO 2606/2609 3SM -TSRA BKN007 OVC015CB
     FM260900 34012G20KT P6SM -SHRA BKN007 OVC015
     FM261500 34012KT P6SM BKN025
     FM261900 35012KT P6SM SCT040
     FM270000 33005KT P6SM FEW100=



000
FTUS44 KLZK 260500
TAFLIT
TAF
KLIT 260530Z 2606/2706 18010G19KT P6SM SCT100 BKN250
     FM260700 18010KT 4SM SHRA VCTS SCT025 BKN050CB
      TEMPO 2607/2611 27010G20KT 2SM -TSRA SCT007 OVC015CB
     FM261100 32008KT P6SM VCSH BKN025 OVC040
     FM261400 35010G18KT P6SM BKN025 BKN050
     FM261600 35015G25KT P6SM SCT250
     FM270000 35006KT P6SM SKC=



000
FTUS44 KLZK 260400 AAA
TAFLIT
TAF AMD
KLIT 260427Z 2604/2624 18013KT P6SM BKN250
     FM260700 16010G18KT 5SM SHRA BR SCT020 OVC040
      TEMPO 2608/2612 3SM TSRA BR BKN020CB
     FM261200 33009G16KT 5SM SHRA BR VCTS SCT012 OVC020CB
     FM261500 34012KT P6SM OVC025=



000
FTUS44 KLZK 260400 AAA
TAFLIT
TAF AMD
KLIT 260427Z 2604/2624 18013KT P6SM BKN250
     FM260700 16010G18KT 5SM SHRA BR SCT020 OVC040
      TEMPO 2608/2612 3SM TSRA BR BKN020CB
     FM261200 33009G16KT 5SM SHRA BR VCTS SCT012 OVC020CB
     FM261500 34012KT P6SM OVC025=



000
FTUS44 KLZK 260400 AAA
TAFHOT
TAF AMD
KHOT 260426Z 2604/2624 17005KT P6SM BKN100
     FM260600 16010G18KT 5SM SHRA BR VCTS SCT020 OVC035CB
      TEMPO 2606/2610 3SM TSRA BR BKN018CB
     FM261000 33009G16KT 5SM SHRA BR SCT012 OVC020
     FM261200 34012KT P6SM OVC025=



000
FTUS44 KLZK 260400 AAA
TAFHOT
TAF AMD
KHOT 260426Z 2604/2624 17005KT P6SM BKN100
     FM260600 16010G18KT 5SM SHRA BR VCTS SCT020 OVC035CB
      TEMPO 2606/2610 3SM TSRA BR BKN018CB
     FM261000 33009G16KT 5SM SHRA BR SCT012 OVC020
     FM261200 34012KT P6SM OVC025=



000
FTUS44 KLZK 260400 AAA
TAFHRO
TAF AMD
KHRO 260415Z 2604/2624 VRB08KT P6SM SHRA OVC004
     FM260800 34011KT P6SM OVC007
     FM261500 34012KT P6SM OVC100=



000
FTUS44 KLZK 260400 AAA
TAFHRO
TAF AMD
KHRO 260415Z 2604/2624 VRB08KT P6SM SHRA OVC004
     FM260800 34011KT P6SM OVC007
     FM261500 34012KT P6SM OVC100=



000
FTUS44 KLZK 252300 RRA
TAFPBF
TAF
KPBF 252342Z 2600/2624 13014KT P6SM SCT045
     FM260600 16010G18KT 5SM SHRA BR SCT020 OVC040
      TEMPO 2609/2613 3SM TSRA BR BKN020CB
     FM261300 33009G16KT 5SM SHRA BR VCTS SCT012 OVC020CB
     FM261600 34012KT P6SM OVC025=



000
FTUS44 KLZK 252300 RRA
TAFHOT
TAF
KHOT 252342Z 2600/2624 16012G18KT P6SM BKN100
     FM260400 16010G18KT 5SM SHRA BR VCTS SCT020 OVC035CB
      TEMPO 2606/2610 3SM TSRA BR BKN018CB
     FM261000 33009G16KT 5SM SHRA BR SCT012 OVC020
     FM261200 34012KT P6SM OVC025=



000
FTUS44 KLZK 252300 RRA
TAFHRO
TAF
KHRO 252342Z 2600/2624 16012G24KT P6SM VCTS SCT040CB BKN080
      TEMPO 2600/2603 VRB20G35KT 2SM TSRA BR OVC007CB
     FM260300 16010G18KT 5SM SHRA BR OVC010
     FM261000 34011KT P6SM OVC007
     FM261500 34012KT P6SM OVC100=



000
FTUS44 KLZK 252300 RRA
TAFLIT
TAF
KLIT 252342Z 2600/2624 13012G20KT P6SM SCT045
     FM260500 16010G18KT 5SM SHRA BR SCT020 OVC040
      TEMPO 2608/2612 3SM TSRA BR BKN020CB
     FM261200 33009G16KT 5SM SHRA BR VCTS SCT012 OVC020CB
     FM261500 34012KT P6SM OVC025=



000
FTUS44 KLZK 252300 RRA
TAFHRO
TAF
KHRO 252342Z 2600/2624 16012G24KT P6SM VCTS SCT040CB BKN080
      TEMPO 2600/2603 VRB20G35KT 2SM TSRA BR OVC007CB
     FM260300 16010G18KT 5SM SHRA BR OVC010
     FM261000 34011KT P6SM OVC007
     FM261500 34012KT P6SM OVC100=



000
FTUS44 KLZK 252300 RRA
TAFHOT
TAF
KHOT 252342Z 2600/2624 16012G18KT P6SM BKN100
     FM260400 16010G18KT 5SM SHRA BR VCTS SCT020 OVC035CB
      TEMPO 2606/2610 3SM TSRA BR BKN018CB
     FM261000 33009G16KT 5SM SHRA BR SCT012 OVC020
     FM261200 34012KT P6SM OVC025=



000
FTUS44 KLZK 252300 RRA
TAFPBF
TAF
KPBF 252342Z 2600/2624 13014KT P6SM SCT045
     FM260600 16010G18KT 5SM SHRA BR SCT020 OVC040
      TEMPO 2609/2613 3SM TSRA BR BKN020CB
     FM261300 33009G16KT 5SM SHRA BR VCTS SCT012 OVC020CB
     FM261600 34012KT P6SM OVC025=



000
FTUS44 KLZK 252300 RRA
TAFLIT
TAF
KLIT 252342Z 2600/2624 13012G20KT P6SM SCT045
     FM260500 16010G18KT 5SM SHRA BR SCT020 OVC040
      TEMPO 2608/2612 3SM TSRA BR BKN020CB
     FM261200 33009G16KT 5SM SHRA BR VCTS SCT012 OVC020CB
     FM261500 34012KT P6SM OVC025=



000
FTUS44 KLZK 252000 AAA
TAFHRO
TAF AMD
KHRO 252009Z 2520/2618 17016G25KT P6SM BKN060
     FM252100 16010G18KT P6SM BKN100
      TEMPO 2523/2603 VRB20G35KT 1SM TSRA BR OVC007CB
     FM260300 16010G18KT 5SM SHRA BR OVC010
     FM260900 34011KT P6SM OVC007
     FM261500 34012KT P6SM OVC100=



000
FTUS44 KLZK 251700
TAFHOT
TAF
KHOT 251730Z 2518/2618 18006KT P6SM SKC
     FM252100 16010G18KT P6SM BKN100
     FM260200 16010G18KT 5SM SHRA BR SCT020 OVC040
      TEMPO 2606/2610 3SM TSRA BR BKN020CB
     FM261030 33009G16KT 5SM SHRA BR VCTS SCT012 OVC020CB
     FM261200 34012KT P6SM OVC025=



000
FTUS44 KLZK 251700
TAFPBF
TAF
KPBF 251730Z 2518/2618 18009KT P6SM SKC
     FM252100 16010G18KT P6SM BKN100
     FM260400 16010G18KT 5SM SHRA BR SCT020 OVC040
      TEMPO 2608/2611 3SM TSRA BR BKN020CB
     FM261200 33009G16KT 5SM SHRA BR VCTS SCT012 OVC020CB
     FM261500 34012KT P6SM OVC025=



000
FTUS44 KLZK 251700
TAFLIT
TAF
KLIT 251730Z 2518/2618 19007KT P6SM BKN250
     FM252100 16010G18KT P6SM BKN100
     FM260300 16010G18KT 5SM SHRA BR SCT020 OVC040
      TEMPO 2607/2611 3SM TSRA BR BKN020CB
     FM261100 33009G16KT 5SM SHRA BR VCTS SCT012 OVC020CB
     FM261400 34012KT P6SM OVC025=



000
FTUS44 KLZK 251700
TAFHRO
TAF
KHRO 251730Z 2518/2618 11011KT P6SM SKC
     FM252100 16010G18KT P6SM BKN100
      TEMPO 2523/2603 VRB20G35KT 1SM TSRA BR OVC007CB
     FM260300 16010G18KT 5SM SHRA BR OVC010
     FM260900 34011KT P6SM OVC007
     FM261500 34012KT P6SM OVC100=



000
FTUS44 KLZK 251400 AAA
TAFHOT
TAF AMD
KHOT 251406Z 2514/2612 14005KT P6SM SKC
     FM251500 17005KT P6SM SCT030
     FM251900 17008KT P6SM SCT040 BKN250
     FM260600 26008KT 5SM SHRA BR SCT020 OVC040 PROB30 2606/2612 3SM
      TSRA BR BKN020CB=



000
FTUS44 KLZK 251400 AAA
TAFHOT
TAF AMD
KHOT 251406Z 2514/2612 14005KT P6SM SKC
     FM251500 17005KT P6SM SCT030
     FM251900 17008KT P6SM SCT040 BKN250
     FM260600 26008KT 5SM SHRA BR SCT020 OVC040 PROB30 2606/2612 3SM
      TSRA BR BKN020CB=



000
FTUS44 KLZK 251400 AAA
TAFPBF
TAF AMD
KPBF 251403Z 2514/2612 20005KT P6SM SCT060
     FM251500 18007KT P6SM SCT030 BKN060
     FM251900 17010G18KT P6SM SCT040 BKN250
     FM260600 24014G22KT 5SM SHRA BR SCT020 OVC040 PROB30 2606/2612
      3SM TSRA BR BKN020CB=



000
FTUS44 KLZK 251300 AAA
TAFLIT
TAF AMD
KLIT 251353Z 2514/2612 17004KT P6SM FEW250
     FM251500 18007KT P6SM SCT030
     FM251900 17009G16KT P6SM SCT040 BKN250
     FM260600 26012G20KT 5SM SHRA BR SCT020 OVC040 PROB30 2606/2612
      3SM TSRA BR BKN020CB=



000
FTUS44 KLZK 251100
TAFHRO
TAF
KHRO 251140Z 2512/2612 17004KT P6SM SCT250
     FM251500 14007KT P6SM FEW035 BKN250
     FM252100 16010G18KT P6SM VCTS SCT045CB BKN100
     FM260300 16010G18KT 5SM SHRA BR SCT020 OVC040
      TEMPO 2603/2607 3SM TSRA BR BKN020CB
     FM260700 33009G16KT 5SM SHRA BR VCTS SCT012 OVC020CB=



000
FTUS44 KLZK 251100
TAFLIT
TAF
KLIT 251140Z 2512/2612 19004KT P6SM SCT020 BKN050
      TEMPO 2512/2515 BKN020
     FM251500 18007KT P6SM SCT030 BKN060
      TEMPO 2515/2517 BKN025
     FM251900 17009G16KT P6SM SCT040 BKN250
     FM260600 26012G20KT 5SM SHRA BR SCT020 OVC040 PROB30 2606/2612
      3SM TSRA BR BKN020CB=



000
FTUS44 KLZK 251100
TAFHOT
TAF
KHOT 251140Z 2512/2612 VRB03KT P6SM SCT020 BKN050
      TEMPO 2512/2515 BKN020
     FM251500 17005KT P6SM SCT030 BKN060
      TEMPO 2515/2517 BKN025
     FM251900 17008KT P6SM SCT040 BKN250
     FM260600 26008KT 5SM SHRA BR SCT020 OVC040 PROB30 2606/2612 3SM
      TSRA BR BKN020CB=



000
FTUS44 KLZK 251100
TAFHOT
TAF
KHOT 251140Z 2512/2612 VRB03KT P6SM SCT020 BKN050
      TEMPO 2512/2515 BKN020
     FM251500 17005KT P6SM SCT030 BKN060
      TEMPO 2515/2517 BKN025
     FM251900 17008KT P6SM SCT040 BKN250
     FM260600 26008KT 5SM SHRA BR SCT020 OVC040 PROB30 2606/2612 3SM
      TSRA BR BKN020CB=



000
FTUS44 KLZK 251100
TAFPBF
TAF
KPBF 251140Z 2512/2612 19004KT P6SM SCT020 BKN050
      TEMPO 2512/2515 BKN020
     FM251500 18007KT P6SM SCT030 BKN060
      TEMPO 2515/2517 BKN025
     FM251900 17010G18KT P6SM SCT040 BKN250
     FM260600 24014G22KT 5SM SHRA BR SCT020 OVC040 PROB30 2606/2612
      3SM TSRA BR BKN020CB=



000
FTUS44 KLZK 251100
TAFHRO
TAF
KHRO 251140Z 2512/2612 17004KT P6SM SCT250
     FM251500 14007KT P6SM FEW035 BKN250
     FM252100 16010G18KT P6SM VCTS SCT045CB BKN100
     FM260300 16010G18KT 5SM SHRA BR SCT020 OVC040
      TEMPO 2603/2607 3SM TSRA BR BKN020CB
     FM260700 33009G16KT 5SM SHRA BR VCTS SCT012 OVC020CB=



000
FTUS44 KLZK 251100
TAFPBF
TAF
KPBF 251140Z 2512/2612 19004KT P6SM SCT020 BKN050
      TEMPO 2512/2515 BKN020
     FM251500 18007KT P6SM SCT030 BKN060
      TEMPO 2515/2517 BKN025
     FM251900 17010G18KT P6SM SCT040 BKN250
     FM260600 24014G22KT 5SM SHRA BR SCT020 OVC040 PROB30 2606/2612
      3SM TSRA BR BKN020CB=



000
FTUS44 KLZK 251100
TAFLIT
TAF
KLIT 251140Z 2512/2612 19004KT P6SM SCT020 BKN050
      TEMPO 2512/2515 BKN020
     FM251500 18007KT P6SM SCT030 BKN060
      TEMPO 2515/2517 BKN025
     FM251900 17009G16KT P6SM SCT040 BKN250
     FM260600 26012G20KT 5SM SHRA BR SCT020 OVC040 PROB30 2606/2612
      3SM TSRA BR BKN020CB=



000
FTUS44 KLZK 250500
TAFPBF
TAF
KPBF 250539Z 2506/2606 18004KT P6SM SCT060 SCT250
     FM251000 18004KT P6SM SCT015 BKN060
      TEMPO 2511/2515 BKN015
     FM251500 19006KT P6SM SCT030 BKN060
      TEMPO 2515/2517 BKN025
     FM251800 17009G16KT P6SM SCT045 BKN250=



000
FTUS44 KLZK 250500
TAFLIT
TAF
KLIT 250539Z 2506/2606 18004KT P6SM SCT060 SCT250
     FM251000 19004KT P6SM SCT015 BKN060
      TEMPO 2511/2515 BKN015
     FM251500 19006KT P6SM SCT030 BKN060
      TEMPO 2515/2517 BKN025
     FM251800 17009G16KT P6SM SCT045 BKN250=



000
FTUS44 KLZK 250500
TAFHRO
TAF
KHRO 250539Z 2506/2606 VRB03KT P6SM SCT060 SCT250
     FM251500 14006KT P6SM FEW040 BKN250
     FM252100 16010G18KT P6SM VCTS SCT050CB BKN100
     FM260300 16010G18KT 5SM SHRA BR SCT020 OVC050
      TEMPO 2603/2606 3SM TSRA BR BKN020CB=



000
FTUS44 KLZK 250500
TAFHOT
TAF
KHOT 250539Z 2506/2606 VRB03KT P6SM SCT060 SCT250
     FM251000 VRB03KT P6SM SCT015 BKN060
      TEMPO 2511/2515 BKN015
     FM251500 18005KT P6SM SCT030 BKN060
      TEMPO 2515/2517 BKN025
     FM251800 17008KT P6SM SCT040 BKN250=



000
FTUS44 KLZK 250500
TAFLIT
TAF
KLIT 250539Z 2506/2606 18004KT P6SM SCT060 SCT250
     FM251000 19004KT P6SM SCT015 BKN060
      TEMPO 2511/2515 BKN015
     FM251500 19006KT P6SM SCT030 BKN060
      TEMPO 2515/2517 BKN025
     FM251800 17009G16KT P6SM SCT045 BKN250=



000
FTUS44 KLZK 250500
TAFPBF
TAF
KPBF 250539Z 2506/2606 18004KT P6SM SCT060 SCT250
     FM251000 18004KT P6SM SCT015 BKN060
      TEMPO 2511/2515 BKN015
     FM251500 19006KT P6SM SCT030 BKN060
      TEMPO 2515/2517 BKN025
     FM251800 17009G16KT P6SM SCT045 BKN250=



000
FTUS44 KLZK 250500
TAFHRO
TAF
KHRO 250539Z 2506/2606 VRB03KT P6SM SCT060 SCT250
     FM251500 14006KT P6SM FEW040 BKN250
     FM252100 16010G18KT P6SM VCTS SCT050CB BKN100
     FM260300 16010G18KT 5SM SHRA BR SCT020 OVC050
      TEMPO 2603/2606 3SM TSRA BR BKN020CB=



000
FTUS44 KLZK 250500
TAFHOT
TAF
KHOT 250539Z 2506/2606 VRB03KT P6SM SCT060 SCT250
     FM251000 VRB03KT P6SM SCT015 BKN060
      TEMPO 2511/2515 BKN015
     FM251500 18005KT P6SM SCT030 BKN060
      TEMPO 2515/2517 BKN025
     FM251800 17008KT P6SM SCT040 BKN250=



000
FTUS44 KLZK 242300
TAFPBF
TAF
KPBF 242329Z 2500/2524 18014G20KT P6SM SCT060
     FM250300 17006KT P6SM SCT050 BKN250
     FM251000 17004KT 5SM BR BKN025
     FM251500 20006KT P6SM SCT025 BKN060=



000
FTUS44 KLZK 242300
TAFHRO
TAF
KHRO 242329Z 2500/2524 17014G22KT P6SM -TSRA SCT020 BKN035CB
     FM250200 25006KT P6SM SCT250
     FM251600 14010KT P6SM SCT050 PROB30 2522/2524 -TSRA SCT020
      OVC035CB=



000
FTUS44 KLZK 242300
TAFLIT
TAF
KLIT 242329Z 2500/2524 18012G20KT P6SM SCT060
     FM250200 17006KT P6SM SCT050 BKN250
     FM251100 17004KT 5SM BR BKN025
     FM251500 20006KT P6SM SCT025 BKN060=



000
FTUS44 KLZK 242300
TAFHOT
TAF
KHOT 242329Z 2500/2524 20010G17KT P6SM SCT060
     FM250300 17006KT P6SM VCSH SCT050 BKN250
     FM251000 17004KT 6SM BR OVC025
     FM251500 20006KT P6SM SCT025 BKN060=



000
FTUS44 KLZK 242300
TAFLIT
TAF
KLIT 242329Z 2500/2524 18012G20KT P6SM SCT060
     FM250200 17006KT P6SM SCT050 BKN250
     FM251100 17004KT 5SM BR BKN025
     FM251500 20006KT P6SM SCT025 BKN060=



000
FTUS44 KLZK 242300
TAFPBF
TAF
KPBF 242329Z 2500/2524 18014G20KT P6SM SCT060
     FM250300 17006KT P6SM SCT050 BKN250
     FM251000 17004KT 5SM BR BKN025
     FM251500 20006KT P6SM SCT025 BKN060=



000
FTUS44 KLZK 242300
TAFHOT
TAF
KHOT 242329Z 2500/2524 20010G17KT P6SM SCT060
     FM250300 17006KT P6SM VCSH SCT050 BKN250
     FM251000 17004KT 6SM BR OVC025
     FM251500 20006KT P6SM SCT025 BKN060=



000
FTUS44 KLZK 242300
TAFHRO
TAF
KHRO 242329Z 2500/2524 17014G22KT P6SM -TSRA SCT020 BKN035CB
     FM250200 25006KT P6SM SCT250
     FM251600 14010KT P6SM SCT050 PROB30 2522/2524 -TSRA SCT020
      OVC035CB=



    US Dept of Commerce
    National Oceanic and Atmospheric Administration
    National Weather Service
    1325 East West Highway
    Silver Spring, MD 20910
    Page Author: NWS Internet Services Team
Disclaimer
Information Quality
Credits
Glossary
Privacy Policy
Freedom of Information Act (FOIA)
About Us
Career Opportunities